createdAt,value
2019-05-22T00:02:39.956Z,11.27
2019-05-22T00:07:46.997Z,11.30
2019-05-22T00:12:54.336Z,11.28
2019-05-22T00:18:03.750Z,11.27
2019-05-22T00:23:12.773Z,11.35
2019-05-22T00:28:19.744Z,11.36
2019-05-22T00:33:26.380Z,11.28
2019-05-22T00:38:34.018Z,11.16
2019-05-22T00:43:42.653Z,11.26
2019-05-22T00:48:49.053Z,11.23
2019-05-22T00:54:13.486Z,11.34
2019-05-22T00:59:27.162Z,11.27
2019-05-22T01:04:38.420Z,11.33
2019-05-22T01:09:46.764Z,11.25
2019-05-22T01:14:53.747Z,11.13
2019-05-22T01:20:03.227Z,11.15
2019-05-22T01:25:11.661Z,11.28
2019-05-22T01:30:33.789Z,11.18
2019-05-22T01:35:44.788Z,11.15
2019-05-22T01:40:57.730Z,11.11
2019-05-22T01:46:06.671Z,11.16
2019-05-22T01:51:14.702Z,11.14
2019-05-22T01:56:21.565Z,11.10
2019-05-22T02:01:27.957Z,11.08
2019-05-22T02:06:36.585Z,11.01
2019-05-22T02:11:45.848Z,11.08
2019-05-22T02:16:56.713Z,11.01
2019-05-22T02:22:04.033Z,11.13
2019-05-22T02:27:11.552Z,11.00
2019-05-22T02:32:20.689Z,11.00
2019-05-22T02:37:28.661Z,10.95
2019-05-22T02:42:35.098Z,11.03
2019-05-22T02:47:43.059Z,11.01
2019-05-22T02:52:50.167Z,10.85
2019-05-22T02:57:56.809Z,11.02
2019-05-22T03:03:05.195Z,11.05
2019-05-22T03:08:11.732Z,10.94
2019-05-22T03:13:21.514Z,11.04
2019-05-22T03:18:28.487Z,11.06
2019-05-22T03:23:36.355Z,11.21
2019-05-22T03:28:43.207Z,11.03
2019-05-22T03:33:50.161Z,10.89
2019-05-22T03:38:58.430Z,11.00
2019-05-22T03:44:06.773Z,10.93
2019-05-22T03:49:29.159Z,11.03
2019-05-22T03:54:25.763Z,11.12
2019-05-22T03:59:31.972Z,11.04
2019-05-22T04:04:41.003Z,10.88
2019-05-22T04:09:49.746Z,10.91
2019-05-22T04:14:57.056Z,10.93
2019-05-22T04:20:07.792Z,11.04
2019-05-22T04:25:14.801Z,10.97
2019-05-22T04:30:21.599Z,11.07
2019-05-22T04:35:28.062Z,11.15
2019-05-22T04:40:55.497Z,11.08
2019-05-22T04:46:03.013Z,11.17
2019-05-22T04:51:38.997Z,11.22
2019-05-22T04:56:45.114Z,11.17
2019-05-22T05:01:51.558Z,11.15
2019-05-22T05:06:57.854Z,11.10
2019-05-22T05:12:05.523Z,11.15
2019-05-22T05:17:13.617Z,11.17
2019-05-22T05:22:26.558Z,11.18
2019-05-22T05:27:33.854Z,11.26
2019-05-22T05:32:41.190Z,11.21
2019-05-22T05:37:47.979Z,11.31
2019-05-22T05:42:55.270Z,11.13
2019-05-22T05:48:04.122Z,11.19
2019-05-22T05:53:20.224Z,11.38
2019-05-22T05:58:28.575Z,11.36
2019-05-22T06:03:40.051Z,11.44
2019-05-22T06:08:48.087Z,11.48
2019-05-22T06:13:55.309Z,11.41
2019-05-22T06:19:01.787Z,11.35
2019-05-22T06:24:30.065Z,11.34
2019-05-22T06:29:43.932Z,11.37
2019-05-22T06:34:51.124Z,11.31
2019-05-22T06:39:58.857Z,11.25
2019-05-22T06:45:06.053Z,11.39
2019-05-22T06:50:13.392Z,11.48
2019-05-22T06:55:19.812Z,11.51
2019-05-22T07:00:27.406Z,11.34
2019-05-22T07:05:33.849Z,11.71
2019-05-22T07:10:41.693Z,11.41
2019-05-22T07:15:52.265Z,11.42
2019-05-22T07:20:59.654Z,11.53
2019-05-22T07:26:06.776Z,11.47
2019-05-22T07:31:13.405Z,11.63
2019-05-22T07:36:21.953Z,11.65
2019-05-22T07:41:28.541Z,11.45
2019-05-22T07:46:34.746Z,11.67
2019-05-22T07:51:53.146Z,11.65
2019-05-22T07:56:49.856Z,11.63
2019-05-22T08:01:56.195Z,11.71
2019-05-22T08:07:03.593Z,11.76
2019-05-22T08:12:12.127Z,11.91
2019-05-22T08:17:20.493Z,11.83
2019-05-22T08:22:28.413Z,11.91
2019-05-22T08:27:36.044Z,11.92
2019-05-22T08:32:43.718Z,11.82
2019-05-22T08:37:51.395Z,11.81
2019-05-22T08:42:57.882Z,11.75
2019-05-22T08:48:04.360Z,12.02
2019-05-22T08:53:14.040Z,11.94
2019-05-22T08:58:21.685Z,12.15
2019-05-22T09:03:28.596Z,11.97
2019-05-22T09:08:34.874Z,11.95
2019-05-22T09:13:41.431Z,11.97
2019-05-22T09:18:48.137Z,12.08
2019-05-22T09:23:56.034Z,11.96
2019-05-22T09:29:02.530Z,12.14
2019-05-22T09:34:08.546Z,11.93
2019-05-22T09:39:15.717Z,11.93
2019-05-22T09:44:22.499Z,11.88
2019-05-22T09:49:29.502Z,11.92
2019-05-22T09:54:36.063Z,12.13
2019-05-22T09:59:42.164Z,12.07
2019-05-22T10:04:48.595Z,12.31
2019-05-22T10:09:54.754Z,12.36
2019-05-22T10:15:01.473Z,12.43
2019-05-22T10:20:10.802Z,12.38
2019-05-22T10:25:17.537Z,12.45
2019-05-22T10:30:25.291Z,12.22
2019-05-22T10:35:33.313Z,12.30
2019-05-22T10:40:39.758Z,12.36
2019-05-22T10:45:46.298Z,12.69
2019-05-22T10:50:52.933Z,12.99
2019-05-22T10:55:59.878Z,12.70
2019-05-22T11:01:08.545Z,12.74
2019-05-22T11:06:15.151Z,12.55
2019-05-22T11:11:21.830Z,12.52
2019-05-22T11:16:28.985Z,12.36
2019-05-22T11:21:35.869Z,12.59
2019-05-22T11:26:42.028Z,12.81
2019-05-22T11:31:48.851Z,12.63
2019-05-22T11:36:55.909Z,12.89
2019-05-22T11:42:03.110Z,12.65
2019-05-22T11:47:11.038Z,12.74
2019-05-22T11:52:18.665Z,12.70
2019-05-22T11:57:25.936Z,12.66
2019-05-22T12:02:32.877Z,12.59
2019-05-22T12:07:41.826Z,12.56
2019-05-22T12:12:49.649Z,12.79
2019-05-22T12:17:56.114Z,13.48
2019-05-22T12:23:02.682Z,13.60
2019-05-22T12:28:09.057Z,13.75
2019-05-22T12:33:15.313Z,13.48
2019-05-22T12:38:26.570Z,13.34
2019-05-22T12:43:32.697Z,13.39
2019-05-22T12:48:40.749Z,13.02
2019-05-22T12:53:47.718Z,12.98
2019-05-22T12:58:55.682Z,12.94
2019-05-22T13:04:04.965Z,12.84
2019-05-22T13:09:12.318Z,13.01
2019-05-22T13:14:19.246Z,12.94
2019-05-22T13:19:26.414Z,13.05
2019-05-22T13:24:35.222Z,13.19
2019-05-22T13:29:42.825Z,12.93
2019-05-22T13:34:49.999Z,13.05
2019-05-22T13:39:56.559Z,13.34
2019-05-22T13:45:04.857Z,13.21
2019-05-22T13:50:13.282Z,13.24
2019-05-22T13:55:20.586Z,13.46
2019-05-22T14:00:27.488Z,13.53
2019-05-22T14:05:35.323Z,13.38
2019-05-22T14:10:43.995Z,13.17
2019-05-22T14:15:56.367Z,13.18
2019-05-22T14:20:58.337Z,13.15
2019-05-22T14:26:04.779Z,13.13
2019-05-22T14:31:11.988Z,13.04
2019-05-22T14:36:19.355Z,13.06
2019-05-22T14:41:26.545Z,13.31
2019-05-22T14:46:33.731Z,13.13
2019-05-22T14:51:40.580Z,12.81
2019-05-22T14:56:46.828Z,12.80
2019-05-22T15:01:53.574Z,12.96
2019-05-22T15:07:00.486Z,12.96
2019-05-22T15:12:06.967Z,12.89
2019-05-22T15:17:31.119Z,13.05
2019-05-22T15:22:23.016Z,13.44
2019-05-22T15:27:29.949Z,13.78
2019-05-22T15:32:36.320Z,14.19
2019-05-22T15:37:43.666Z,14.50
2019-05-22T15:42:50.329Z,14.82
2019-05-22T15:47:58.411Z,15.00
2019-05-22T15:53:11.095Z,14.79
2019-05-22T15:58:17.956Z,15.09
2019-05-22T16:03:28.073Z,14.90
2019-05-22T16:08:34.810Z,14.49
2019-05-22T16:13:42.032Z,15.07
2019-05-22T16:18:49.937Z,15.21
2019-05-22T16:23:58.636Z,15.58
2019-05-22T16:29:07.006Z,15.56
2019-05-22T16:34:14.570Z,15.53
2019-05-22T16:39:21.770Z,15.73
2019-05-22T16:44:29.122Z,15.45
2019-05-22T16:49:36.913Z,15.79
2019-05-22T16:54:43.505Z,15.55
2019-05-22T16:59:51.141Z,15.53
2019-05-22T17:04:57.468Z,15.26
2019-05-22T17:10:04.653Z,15.38
2019-05-22T17:15:15.641Z,15.34
2019-05-22T17:20:24.769Z,15.30
2019-05-22T17:25:31.679Z,15.36
2019-05-22T17:30:38.522Z,15.35
2019-05-22T17:35:46.032Z,15.15
2019-05-22T17:40:52.185Z,14.99
2019-05-22T17:45:58.480Z,14.81
2019-05-22T17:51:05.228Z,14.91
2019-05-22T17:56:11.645Z,14.67
2019-05-22T18:01:18.697Z,14.56
2019-05-22T18:06:25.730Z,14.55
2019-05-22T18:11:31.943Z,14.37
2019-05-22T18:16:38.284Z,14.18
2019-05-22T18:21:45.151Z,13.95
2019-05-22T18:26:51.473Z,13.75
2019-05-22T18:32:01.871Z,13.52
2019-05-22T18:37:11.378Z,13.26
2019-05-22T18:42:21.442Z,13.07
2019-05-22T18:47:28.142Z,12.89
2019-05-22T18:52:41.074Z,12.59
2019-05-22T18:57:43.409Z,12.33
2019-05-22T19:02:49.607Z,12.16
2019-05-22T19:07:56.387Z,11.93
2019-05-22T19:13:02.728Z,11.72
2019-05-22T19:18:09.481Z,11.55
2019-05-22T19:23:16.039Z,11.48
2019-05-22T19:28:22.622Z,11.19
2019-05-22T19:33:29.311Z,11.09
2019-05-22T19:38:35.800Z,10.94
2019-05-22T19:43:42.181Z,10.81
2019-05-22T19:48:48.972Z,10.86
2019-05-22T19:53:56.067Z,10.77
2019-05-22T19:59:02.908Z,10.72
2019-05-22T20:04:09.931Z,10.67
2019-05-22T20:09:17.096Z,10.70
2019-05-22T20:14:24.362Z,10.68
2019-05-22T20:19:30.846Z,10.62
2019-05-22T20:24:37.641Z,10.56
2019-05-22T20:29:45.522Z,10.15
2019-05-22T20:34:52.054Z,9.81
2019-05-22T20:39:59.654Z,9.80
2019-05-22T20:45:07.008Z,9.81
2019-05-22T20:50:14.506Z,9.70
2019-05-22T20:55:21.268Z,9.74
2019-05-22T21:00:29.071Z,9.60
2019-05-22T21:05:37.487Z,9.55
2019-05-22T21:10:46.999Z,9.28
2019-05-22T21:16:07.456Z,9.27
2019-05-22T21:21:16.024Z,9.31
2019-05-22T21:26:23.253Z,9.41
2019-05-22T21:31:30.288Z,9.47
2019-05-22T21:36:37.132Z,9.41
2019-05-22T21:41:44.041Z,9.37
2019-05-22T21:46:51.906Z,9.17
2019-05-22T21:51:59.500Z,9.11
2019-05-22T21:57:06.711Z,8.88
2019-05-22T22:02:23.186Z,8.93
2019-05-22T22:07:30.513Z,8.79
2019-05-22T22:12:37.181Z,8.75
2019-05-22T22:17:46.176Z,8.50
2019-05-22T22:22:52.563Z,8.48
2019-05-22T22:27:58.797Z,8.24
2019-05-22T22:33:11.021Z,8.05
2019-05-22T22:38:17.938Z,8.05
2019-05-22T22:43:27.690Z,8.09
2019-05-22T22:48:36.741Z,8.03
2019-05-22T22:53:43.902Z,7.90
2019-05-22T22:58:50.704Z,7.99
2019-05-22T23:03:59.085Z,7.85
2019-05-22T23:09:08.292Z,7.83
2019-05-22T23:14:15.428Z,7.83
2019-05-22T23:19:33.658Z,7.82
2019-05-22T23:30:31.989Z,7.87
2019-05-22T23:35:38.240Z,7.76
2019-05-22T23:40:46.036Z,7.60
2019-05-22T23:45:52.897Z,7.60
2019-05-22T23:50:59.827Z,7.27
2019-05-22T23:56:06.773Z,7.19
